sensor_id;sensor_type;location;lat;lon;timestamp;P1;durP1;ratioP1;P2;durP2;ratioP2
61915;SDS011;47868;51.326;6.550;2023-11-21T00:00:08;17.02;;;12.63;;
61915;SDS011;47868;51.326;6.550;2023-11-21T00:02:37;16.90;;;11.77;;
61915;SDS011;47868;51.326;6.550;2023-11-21T00:05:05;15.45;;;12.20;;
61915;SDS011;47868;51.326;6.550;2023-11-21T00:07:33;15.95;;;11.80;;
61915;SDS011;47868;51.326;6.550;2023-11-21T00:09:59;19.08;;;12.25;;
61915;SDS011;47868;51.326;6.550;2023-11-21T00:12:25;15.40;;;12.60;;
61915;SDS011;47868;51.326;6.550;2023-11-21T00:14:52;20.58;;;12.35;;
61915;SDS011;47868;51.326;6.550;2023-11-21T00:17:18;15.82;;;12.00;;
61915;SDS011;47868;51.326;6.550;2023-11-21T00:19:44;16.92;;;12.82;;
61915;SDS011;47868;51.326;6.550;2023-11-21T00:22:10;18.27;;;12.75;;
61915;SDS011;47868;51.326;6.550;2023-11-21T00:24:36;16.30;;;12.25;;
61915;SDS011;47868;51.326;6.550;2023-11-21T00:27:03;17.00;;;12.43;;
61915;SDS011;47868;51.326;6.550;2023-11-21T00:29:29;17.25;;;12.15;;
61915;SDS011;47868;51.326;6.550;2023-11-21T00:31:55;18.33;;;12.02;;
61915;SDS011;47868;51.326;6.550;2023-11-21T00:34:21;18.48;;;12.95;;
61915;SDS011;47868;51.326;6.550;2023-11-21T00:36:47;18.02;;;12.70;;
61915;SDS011;47868;51.326;6.550;2023-11-21T00:39:13;17.83;;;11.98;;
61915;SDS011;47868;51.326;6.550;2023-11-21T00:41:39;18.92;;;12.70;;
61915;SDS011;47868;51.326;6.550;2023-11-21T00:44:05;16.70;;;12.43;;
61915;SDS011;47868;51.326;6.550;2023-11-21T00:46:31;15.20;;;11.30;;
61915;SDS011;47868;51.326;6.550;2023-11-21T00:48:57;14.27;;;11.73;;
61915;SDS011;47868;51.326;6.550;2023-11-21T00:51:23;17.05;;;11.68;;
61915;SDS011;47868;51.326;6.550;2023-11-21T00:53:50;18.45;;;12.48;;
61915;SDS011;47868;51.326;6.550;2023-11-21T00:56:16;15.15;;;11.82;;
61915;SDS011;47868;51.326;6.550;2023-11-21T00:58:42;14.80;;;12.23;;
61915;SDS011;47868;51.326;6.550;2023-11-21T01:01:11;15.27;;;12.45;;
61915;SDS011;47868;51.326;6.550;2023-11-21T01:03:37;17.98;;;12.32;;
61915;SDS011;47868;51.326;6.550;2023-11-21T01:06:03;18.45;;;11.93;;
61915;SDS011;47868;51.326;6.550;2023-11-21T01:08:32;19.92;;;12.30;;
61915;SDS011;47868;51.326;6.550;2023-11-21T01:10:58;19.58;;;12.00;;
61915;SDS011;47868;51.326;6.550;2023-11-21T01:13:25;16.88;;;13.13;;
61915;SDS011;47868;51.326;6.550;2023-11-21T01:15:54;19.63;;;13.07;;
61915;SDS011;47868;51.326;6.550;2023-11-21T01:18:20;24.05;;;11.63;;
61915;SDS011;47868;51.326;6.550;2023-11-21T01:20:46;19.73;;;13.02;;
61915;SDS011;47868;51.326;6.550;2023-11-21T01:23:13;17.65;;;12.98;;
61915;SDS011;47868;51.326;6.550;2023-11-21T01:25:39;20.45;;;13.75;;
61915;SDS011;47868;51.326;6.550;2023-11-21T01:28:05;19.42;;;13.00;;
61915;SDS011;47868;51.326;6.550;2023-11-21T01:30:32;17.73;;;13.07;;
61915;SDS011;47868;51.326;6.550;2023-11-21T01:32:58;20.05;;;12.80;;
61915;SDS011;47868;51.326;6.550;2023-11-21T01:35:24;18.95;;;12.45;;
61915;SDS011;47868;51.326;6.550;2023-11-21T01:37:50;16.60;;;12.52;;
61915;SDS011;47868;51.326;6.550;2023-11-21T01:40:16;17.67;;;12.70;;
61915;SDS011;47868;51.326;6.550;2023-11-21T01:42:44;20.67;;;12.48;;
61915;SDS011;47868;51.326;6.550;2023-11-21T01:45:12;20.15;;;13.20;;
61915;SDS011;47868;51.326;6.550;2023-11-21T01:47:38;21.25;;;12.45;;
61915;SDS011;47868;51.326;6.550;2023-11-21T01:50:06;23.73;;;13.02;;
61915;SDS011;47868;51.326;6.550;2023-11-21T01:52:33;19.00;;;12.98;;
61915;SDS011;47868;51.326;6.550;2023-11-21T01:55:00;16.98;;;12.73;;
61915;SDS011;47868;51.326;6.550;2023-11-21T01:57:26;19.30;;;12.73;;
61915;SDS011;47868;51.326;6.550;2023-11-21T01:59:53;23.48;;;13.10;;
61915;SDS011;47868;51.326;6.550;2023-11-21T02:02:20;20.35;;;13.93;;
61915;SDS011;47868;51.326;6.550;2023-11-21T02:04:46;20.45;;;13.40;;
61915;SDS011;47868;51.326;6.550;2023-11-21T02:07:12;17.10;;;11.95;;
61915;SDS011;47868;51.326;6.550;2023-11-21T02:09:38;18.55;;;12.75;;
61915;SDS011;47868;51.326;6.550;2023-11-21T02:12:07;17.85;;;13.05;;
61915;SDS011;47868;51.326;6.550;2023-11-21T02:14:35;19.45;;;12.57;;
61915;SDS011;47868;51.326;6.550;2023-11-21T02:17:01;16.02;;;12.18;;
61915;SDS011;47868;51.326;6.550;2023-11-21T02:19:28;15.68;;;11.98;;
61915;SDS011;47868;51.326;6.550;2023-11-21T02:21:58;16.02;;;12.43;;
61915;SDS011;47868;51.326;6.550;2023-11-21T02:24:31;23.88;;;13.00;;
61915;SDS011;47868;51.326;6.550;2023-11-21T02:26:57;18.92;;;12.82;;
61915;SDS011;47868;51.326;6.550;2023-11-21T02:29:23;19.52;;;13.63;;
61915;SDS011;47868;51.326;6.550;2023-11-21T02:31:53;19.58;;;13.25;;
61915;SDS011;47868;51.326;6.550;2023-11-21T02:34:19;21.08;;;14.07;;
61915;SDS011;47868;51.326;6.550;2023-11-21T02:36:46;20.25;;;15.02;;
61915;SDS011;47868;51.326;6.550;2023-11-21T02:39:14;19.42;;;15.00;;
61915;SDS011;47868;51.326;6.550;2023-11-21T02:41:41;23.67;;;15.52;;
61915;SDS011;47868;51.326;6.550;2023-11-21T02:44:07;21.98;;;15.30;;
61915;SDS011;47868;51.326;6.550;2023-11-21T02:46:35;24.63;;;15.98;;
61915;SDS011;47868;51.326;6.550;2023-11-21T02:49:04;23.73;;;16.77;;
61915;SDS011;47868;51.326;6.550;2023-11-21T02:51:35;21.23;;;15.85;;
61915;SDS011;47868;51.326;6.550;2023-11-21T02:54:01;21.98;;;15.30;;
61915;SDS011;47868;51.326;6.550;2023-11-21T02:56:31;20.90;;;15.73;;
61915;SDS011;47868;51.326;6.550;2023-11-21T02:58:59;23.75;;;15.82;;
61915;SDS011;47868;51.326;6.550;2023-11-21T03:01:25;21.98;;;15.95;;
61915;SDS011;47868;51.326;6.550;2023-11-21T03:03:52;23.77;;;15.32;;
61915;SDS011;47868;51.326;6.550;2023-11-21T03:06:20;23.00;;;16.00;;
61915;SDS011;47868;51.326;6.550;2023-11-21T03:08:46;22.30;;;15.70;;
61915;SDS011;47868;51.326;6.550;2023-11-21T03:11:13;21.20;;;15.60;;
61915;SDS011;47868;51.326;6.550;2023-11-21T03:13:40;21.45;;;14.55;;
61915;SDS011;47868;51.326;6.550;2023-11-21T03:16:10;23.23;;;15.10;;
61915;SDS011;47868;51.326;6.550;2023-11-21T03:18:39;22.58;;;15.15;;
61915;SDS011;47868;51.326;6.550;2023-11-21T03:21:05;25.70;;;15.63;;
61915;SDS011;47868;51.326;6.550;2023-11-21T03:23:33;22.92;;;15.02;;
61915;SDS011;47868;51.326;6.550;2023-11-21T03:25:59;22.17;;;15.38;;
61915;SDS011;47868;51.326;6.550;2023-11-21T03:28:26;27.27;;;16.65;;
61915;SDS011;47868;51.326;6.550;2023-11-21T03:30:52;23.48;;;16.52;;
61915;SDS011;47868;51.326;6.550;2023-11-21T03:33:19;27.27;;;18.10;;
61915;SDS011;47868;51.326;6.550;2023-11-21T03:35:45;27.95;;;16.63;;
61915;SDS011;47868;51.326;6.550;2023-11-21T03:38:11;26.83;;;16.75;;
61915;SDS011;47868;51.326;6.550;2023-11-21T03:40:37;24.88;;;16.05;;
61915;SDS011;47868;51.326;6.550;2023-11-21T03:43:04;25.65;;;16.63;;
61915;SDS011;47868;51.326;6.550;2023-11-21T03:45:31;25.92;;;17.25;;
61915;SDS011;47868;51.326;6.550;2023-11-21T03:47:57;26.67;;;16.48;;
61915;SDS011;47868;51.326;6.550;2023-11-21T03:50:23;27.30;;;17.70;;
61915;SDS011;47868;51.326;6.550;2023-11-21T03:52:49;29.88;;;17.15;;
61915;SDS011;47868;51.326;6.550;2023-11-21T03:55:15;29.58;;;17.70;;
61915;SDS011;47868;51.326;6.550;2023-11-21T03:57:41;25.92;;;16.88;;
61915;SDS011;47868;51.326;6.550;2023-11-21T04:00:08;24.50;;;17.27;;
61915;SDS011;47868;51.326;6.550;2023-11-21T04:02:35;33.30;;;17.83;;
61915;SDS011;47868;51.326;6.550;2023-11-21T04:05:01;27.88;;;16.88;;
61915;SDS011;47868;51.326;6.550;2023-11-21T04:07:27;27.13;;;16.80;;
61915;SDS011;47868;51.326;6.550;2023-11-21T04:09:53;31.80;;;18.98;;
61915;SDS011;47868;51.326;6.550;2023-11-21T04:12:20;25.38;;;17.00;;
61915;SDS011;47868;51.326;6.550;2023-11-21T04:14:46;30.05;;;18.73;;
61915;SDS011;47868;51.326;6.550;2023-11-21T04:17:12;30.70;;;19.50;;
61915;SDS011;47868;51.326;6.550;2023-11-21T04:19:38;36.22;;;21.17;;
61915;SDS011;47868;51.326;6.550;2023-11-21T04:22:04;32.97;;;20.15;;
61915;SDS011;47868;51.326;6.550;2023-11-21T04:24:30;28.05;;;19.83;;
61915;SDS011;47868;51.326;6.550;2023-11-21T04:26:56;26.58;;;18.10;;
61915;SDS011;47868;51.326;6.550;2023-11-21T04:29:22;30.02;;;19.27;;
61915;SDS011;47868;51.326;6.550;2023-11-21T04:31:48;29.17;;;18.83;;
61915;SDS011;47868;51.326;6.550;2023-11-21T04:34:14;27.35;;;17.95;;
61915;SDS011;47868;51.326;6.550;2023-11-21T04:36:40;33.80;;;18.67;;
61915;SDS011;47868;51.326;6.550;2023-11-21T04:39:06;27.92;;;19.38;;
61915;SDS011;47868;51.326;6.550;2023-11-21T04:41:32;36.63;;;18.88;;
61915;SDS011;47868;51.326;6.550;2023-11-21T04:43:58;30.55;;;18.95;;
61915;SDS011;47868;51.326;6.550;2023-11-21T04:46:27;34.13;;;18.15;;
61915;SDS011;47868;51.326;6.550;2023-11-21T04:48:53;34.00;;;19.58;;
61915;SDS011;47868;51.326;6.550;2023-11-21T04:51:19;26.85;;;16.90;;
61915;SDS011;47868;51.326;6.550;2023-11-21T04:53:45;28.35;;;17.80;;
61915;SDS011;47868;51.326;6.550;2023-11-21T04:56:11;32.97;;;18.27;;
61915;SDS011;47868;51.326;6.550;2023-11-21T04:58:37;31.65;;;17.77;;
61915;SDS011;47868;51.326;6.550;2023-11-21T05:01:05;30.52;;;17.38;;
61915;SDS011;47868;51.326;6.550;2023-11-21T05:03:31;31.30;;;18.38;;
61915;SDS011;47868;51.326;6.550;2023-11-21T05:05:57;31.85;;;18.85;;
61915;SDS011;47868;51.326;6.550;2023-11-21T05:08:24;32.42;;;17.92;;
61915;SDS011;47868;51.326;6.550;2023-11-21T05:10:51;28.33;;;19.45;;
61915;SDS011;47868;51.326;6.550;2023-11-21T05:13:17;30.33;;;18.67;;
61915;SDS011;47868;51.326;6.550;2023-11-21T05:15:44;28.95;;;17.60;;
61915;SDS011;47868;51.326;6.550;2023-11-21T05:18:10;30.38;;;18.77;;
61915;SDS011;47868;51.326;6.550;2023-11-21T05:20:36;30.02;;;19.73;;
61915;SDS011;47868;51.326;6.550;2023-11-21T05:23:03;26.85;;;17.45;;
61915;SDS011;47868;51.326;6.550;2023-11-21T05:25:29;32.83;;;20.52;;
61915;SDS011;47868;51.326;6.550;2023-11-21T05:27:57;32.72;;;19.33;;
61915;SDS011;47868;51.326;6.550;2023-11-21T05:30:26;39.15;;;20.88;;
61915;SDS011;47868;51.326;6.550;2023-11-21T05:32:53;36.03;;;21.20;;
61915;SDS011;47868;51.326;6.550;2023-11-21T05:35:19;32.75;;;20.08;;
61915;SDS011;47868;51.326;6.550;2023-11-21T05:37:46;35.10;;;20.98;;
61915;SDS011;47868;51.326;6.550;2023-11-21T05:40:12;32.33;;;20.08;;
61915;SDS011;47868;51.326;6.550;2023-11-21T05:42:39;36.03;;;21.35;;
61915;SDS011;47868;51.326;6.550;2023-11-21T05:45:05;40.28;;;22.23;;
61915;SDS011;47868;51.326;6.550;2023-11-21T05:47:39;39.35;;;21.27;;
61915;SDS011;47868;51.326;6.550;2023-11-21T05:50:05;39.42;;;22.38;;
61915;SDS011;47868;51.326;6.550;2023-11-21T05:52:35;39.35;;;23.67;;
61915;SDS011;47868;51.326;6.550;2023-11-21T05:55:01;43.55;;;23.55;;
61915;SDS011;47868;51.326;6.550;2023-11-21T05:57:28;39.80;;;21.40;;
61915;SDS011;47868;51.326;6.550;2023-11-21T05:59:54;41.70;;;22.55;;
61915;SDS011;47868;51.326;6.550;2023-11-21T06:02:20;43.25;;;21.98;;
61915;SDS011;47868;51.326;6.550;2023-11-21T06:04:46;43.33;;;22.00;;
61915;SDS011;47868;51.326;6.550;2023-11-21T06:07:12;44.47;;;21.58;;
61915;SDS011;47868;51.326;6.550;2023-11-21T06:09:38;40.13;;;23.40;;
61915;SDS011;47868;51.326;6.550;2023-11-21T06:12:04;44.45;;;21.73;;
61915;SDS011;47868;51.326;6.550;2023-11-21T06:14:30;40.60;;;22.65;;
61915;SDS011;47868;51.326;6.550;2023-11-21T06:17:00;48.47;;;24.20;;
61915;SDS011;47868;51.326;6.550;2023-11-21T06:19:26;48.78;;;24.92;;
61915;SDS011;47868;51.326;6.550;2023-11-21T06:21:52;47.17;;;24.67;;
61915;SDS011;47868;51.326;6.550;2023-11-21T06:24:18;44.45;;;25.25;;
61915;SDS011;47868;51.326;6.550;2023-11-21T06:26:46;48.55;;;24.17;;
61915;SDS011;47868;51.326;6.550;2023-11-21T06:29:13;58.30;;;26.67;;
61915;SDS011;47868;51.326;6.550;2023-11-21T06:31:40;50.35;;;25.02;;
61915;SDS011;47868;51.326;6.550;2023-11-21T06:34:08;57.80;;;25.95;;
61915;SDS011;47868;51.326;6.550;2023-11-21T06:36:35;58.20;;;28.05;;
61915;SDS011;47868;51.326;6.550;2023-11-21T06:39:01;53.55;;;26.60;;
61915;SDS011;47868;51.326;6.550;2023-11-21T06:41:27;56.25;;;26.88;;
61915;SDS011;47868;51.326;6.550;2023-11-21T06:43:54;59.15;;;28.17;;
61915;SDS011;47868;51.326;6.550;2023-11-21T06:46:20;54.05;;;27.55;;
61915;SDS011;47868;51.326;6.550;2023-11-21T06:48:46;48.50;;;25.15;;
61915;SDS011;47868;51.326;6.550;2023-11-21T06:51:14;58.15;;;29.10;;
61915;SDS011;47868;51.326;6.550;2023-11-21T06:53:40;61.13;;;28.35;;
61915;SDS011;47868;51.326;6.550;2023-11-21T06:56:15;54.60;;;28.52;;
61915;SDS011;47868;51.326;6.550;2023-11-21T06:58:41;57.65;;;28.52;;
61915;SDS011;47868;51.326;6.550;2023-11-21T07:01:07;56.65;;;26.83;;
61915;SDS011;47868;51.326;6.550;2023-11-21T07:03:33;62.05;;;28.05;;
61915;SDS011;47868;51.326;6.550;2023-11-21T07:05:59;56.72;;;28.27;;
61915;SDS011;47868;51.326;6.550;2023-11-21T07:08:25;53.95;;;28.58;;
61915;SDS011;47868;51.326;6.550;2023-11-21T07:10:51;55.75;;;28.95;;
61915;SDS011;47868;51.326;6.550;2023-11-21T07:13:17;55.22;;;30.60;;
61915;SDS011;47868;51.326;6.550;2023-11-21T07:15:43;56.40;;;29.08;;
61915;SDS011;47868;51.326;6.550;2023-11-21T07:18:09;62.97;;;29.73;;
61915;SDS011;47868;51.326;6.550;2023-11-21T07:20:36;67.85;;;31.85;;
61915;SDS011;47868;51.326;6.550;2023-11-21T07:23:02;64.72;;;31.13;;
61915;SDS011;47868;51.326;6.550;2023-11-21T07:25:29;56.78;;;30.25;;
61915;SDS011;47868;51.326;6.550;2023-11-21T07:27:55;56.58;;;29.45;;
61915;SDS011;47868;51.326;6.550;2023-11-21T07:30:21;56.65;;;30.90;;
61915;SDS011;47868;51.326;6.550;2023-11-21T07:32:47;59.47;;;30.90;;
61915;SDS011;47868;51.326;6.550;2023-11-21T07:35:14;55.95;;;30.33;;
61915;SDS011;47868;51.326;6.550;2023-11-21T07:37:40;65.20;;;30.10;;
61915;SDS011;47868;51.326;6.550;2023-11-21T07:40:06;58.67;;;29.85;;
61915;SDS011;47868;51.326;6.550;2023-11-21T07:42:33;57.78;;;31.05;;
61915;SDS011;47868;51.326;6.550;2023-11-21T07:44:59;63.08;;;31.02;;
61915;SDS011;47868;51.326;6.550;2023-11-21T07:47:27;52.78;;;31.30;;
61915;SDS011;47868;51.326;6.550;2023-11-21T07:49:53;55.10;;;31.08;;
61915;SDS011;47868;51.326;6.550;2023-11-21T07:52:21;56.17;;;29.63;;
61915;SDS011;47868;51.326;6.550;2023-11-21T07:54:47;57.95;;;30.13;;
61915;SDS011;47868;51.326;6.550;2023-11-21T07:57:13;56.50;;;31.27;;
61915;SDS011;47868;51.326;6.550;2023-11-21T07:59:40;56.75;;;31.50;;
61915;SDS011;47868;51.326;6.550;2023-11-21T08:02:06;57.95;;;31.38;;
61915;SDS011;47868;51.326;6.550;2023-11-21T08:04:33;59.58;;;31.80;;
61915;SDS011;47868;51.326;6.550;2023-11-21T08:07:00;61.95;;;31.85;;
61915;SDS011;47868;51.326;6.550;2023-11-21T08:09:26;59.90;;;32.28;;
61915;SDS011;47868;51.326;6.550;2023-11-21T08:11:52;65.78;;;31.42;;
61915;SDS011;47868;51.326;6.550;2023-11-21T08:14:19;57.58;;;30.70;;
61915;SDS011;47868;51.326;6.550;2023-11-21T08:16:45;50.42;;;29.05;;
61915;SDS011;47868;51.326;6.550;2023-11-21T08:19:12;51.22;;;29.10;;
61915;SDS011;47868;51.326;6.550;2023-11-21T08:21:38;55.53;;;29.17;;
61915;SDS011;47868;51.326;6.550;2023-11-21T08:24:06;62.13;;;31.30;;
61915;SDS011;47868;51.326;6.550;2023-11-21T08:26:35;56.15;;;29.10;;
61915;SDS011;47868;51.326;6.550;2023-11-21T08:29:01;60.67;;;32.17;;
61915;SDS011;47868;51.326;6.550;2023-11-21T08:31:27;55.72;;;31.70;;
61915;SDS011;47868;51.326;6.550;2023-11-21T08:33:54;51.83;;;28.42;;
61915;SDS011;47868;51.326;6.550;2023-11-21T08:36:23;48.85;;;27.90;;
61915;SDS011;47868;51.326;6.550;2023-11-21T08:38:50;49.17;;;28.40;;
61915;SDS011;47868;51.326;6.550;2023-11-21T08:41:19;40.58;;;24.65;;
61915;SDS011;47868;51.326;6.550;2023-11-21T08:43:52;45.92;;;25.42;;
61915;SDS011;47868;51.326;6.550;2023-11-21T08:46:20;44.90;;;27.23;;
61915;SDS011;47868;51.326;6.550;2023-11-21T08:48:46;43.17;;;25.55;;
61915;SDS011;47868;51.326;6.550;2023-11-21T08:51:12;40.85;;;26.13;;
61915;SDS011;47868;51.326;6.550;2023-11-21T08:53:40;44.67;;;27.10;;
61915;SDS011;47868;51.326;6.550;2023-11-21T08:56:06;48.65;;;25.55;;
61915;SDS011;47868;51.326;6.550;2023-11-21T08:58:34;43.63;;;27.05;;
61915;SDS011;47868;51.326;6.550;2023-11-21T09:01:01;54.88;;;29.63;;
61915;SDS011;47868;51.326;6.550;2023-11-21T09:03:27;46.83;;;26.10;;
61915;SDS011;47868;51.326;6.550;2023-11-21T09:05:53;45.70;;;26.30;;
61915;SDS011;47868;51.326;6.550;2023-11-21T09:08:19;39.38;;;25.70;;
61915;SDS011;47868;51.326;6.550;2023-11-21T09:10:47;42.72;;;25.98;;
61915;SDS011;47868;51.326;6.550;2023-11-21T09:13:13;41.92;;;25.02;;
61915;SDS011;47868;51.326;6.550;2023-11-21T09:15:41;46.50;;;28.08;;
61915;SDS011;47868;51.326;6.550;2023-11-21T09:18:11;45.83;;;25.90;;
61915;SDS011;47868;51.326;6.550;2023-11-21T09:20:37;48.30;;;27.77;;
61915;SDS011;47868;51.326;6.550;2023-11-21T09:23:03;42.17;;;26.25;;
61915;SDS011;47868;51.326;6.550;2023-11-21T09:25:29;45.08;;;27.42;;
61915;SDS011;47868;51.326;6.550;2023-11-21T09:27:55;47.10;;;27.75;;
61915;SDS011;47868;51.326;6.550;2023-11-21T09:30:22;54.03;;;27.25;;
61915;SDS011;47868;51.326;6.550;2023-11-21T09:32:49;45.00;;;26.60;;
61915;SDS011;47868;51.326;6.550;2023-11-21T09:35:15;42.70;;;27.52;;
61915;SDS011;47868;51.326;6.550;2023-11-21T09:37:43;43.67;;;26.27;;
61915;SDS011;47868;51.326;6.550;2023-11-21T09:40:11;43.00;;;26.30;;
61915;SDS011;47868;51.326;6.550;2023-11-21T09:43:05;43.53;;;25.23;;
61915;SDS011;47868;51.326;6.550;2023-11-21T09:45:34;42.40;;;26.33;;
61915;SDS011;47868;51.326;6.550;2023-11-21T09:48:01;44.53;;;25.35;;
61915;SDS011;47868;51.326;6.550;2023-11-21T09:50:27;42.67;;;24.55;;
61915;SDS011;47868;51.326;6.550;2023-11-21T09:52:58;38.35;;;24.95;;
61915;SDS011;47868;51.326;6.550;2023-11-21T09:55:29;38.22;;;23.73;;
61915;SDS011;47868;51.326;6.550;2023-11-21T09:58:00;36.65;;;23.15;;
61915;SDS011;47868;51.326;6.550;2023-11-21T10:00:28;42.28;;;25.48;;
61915;SDS011;47868;51.326;6.550;2023-11-21T10:02:57;46.17;;;26.45;;
61915;SDS011;47868;51.326;6.550;2023-11-21T10:05:23;42.70;;;26.00;;
61915;SDS011;47868;51.326;6.550;2023-11-21T10:07:50;45.13;;;25.45;;
61915;SDS011;47868;51.326;6.550;2023-11-21T10:10:18;39.92;;;24.52;;
61915;SDS011;47868;51.326;6.550;2023-11-21T10:12:46;37.78;;;23.52;;
61915;SDS011;47868;51.326;6.550;2023-11-21T10:15:14;40.78;;;24.08;;
61915;SDS011;47868;51.326;6.550;2023-11-21T10:17:41;45.38;;;24.45;;
61915;SDS011;47868;51.326;6.550;2023-11-21T10:20:13;41.45;;;25.40;;
61915;SDS011;47868;51.326;6.550;2023-11-21T10:22:42;41.78;;;24.40;;
61915;SDS011;47868;51.326;6.550;2023-11-21T10:25:08;36.78;;;22.25;;
61915;SDS011;47868;51.326;6.550;2023-11-21T10:27:36;38.83;;;23.73;;
61915;SDS011;47868;51.326;6.550;2023-11-21T10:30:04;42.00;;;23.05;;
61915;SDS011;47868;51.326;6.550;2023-11-21T10:32:30;37.90;;;22.48;;
61915;SDS011;47868;51.326;6.550;2023-11-21T10:34:58;36.42;;;23.00;;
61915;SDS011;47868;51.326;6.550;2023-11-21T10:37:31;41.50;;;23.77;;
61915;SDS011;47868;51.326;6.550;2023-11-21T10:40:00;39.17;;;24.00;;
61915;SDS011;47868;51.326;6.550;2023-11-21T10:42:26;40.03;;;24.30;;
61915;SDS011;47868;51.326;6.550;2023-11-21T10:44:53;41.30;;;26.67;;
61915;SDS011;47868;51.326;6.550;2023-11-21T10:47:19;45.58;;;26.20;;
61915;SDS011;47868;51.326;6.550;2023-11-21T10:49:51;38.33;;;24.70;;
61915;SDS011;47868;51.326;6.550;2023-11-21T10:52:18;42.90;;;26.23;;
61915;SDS011;47868;51.326;6.550;2023-11-21T10:54:45;39.88;;;24.15;;
61915;SDS011;47868;51.326;6.550;2023-11-21T10:57:11;46.72;;;30.15;;
61915;SDS011;47868;51.326;6.550;2023-11-21T10:59:40;45.70;;;26.35;;
61915;SDS011;47868;51.326;6.550;2023-11-21T11:02:10;37.13;;;22.98;;
61915;SDS011;47868;51.326;6.550;2023-11-21T11:04:38;37.50;;;24.50;;
61915;SDS011;47868;51.326;6.550;2023-11-21T11:07:05;36.70;;;23.77;;
61915;SDS011;47868;51.326;6.550;2023-11-21T11:09:34;40.80;;;23.45;;
61915;SDS011;47868;51.326;6.550;2023-11-21T11:12:03;38.85;;;22.92;;
61915;SDS011;47868;51.326;6.550;2023-11-21T11:14:31;37.33;;;22.48;;
61915;SDS011;47868;51.326;6.550;2023-11-21T11:16:57;42.88;;;24.67;;
61915;SDS011;47868;51.326;6.550;2023-11-21T11:19:25;40.95;;;24.98;;
61915;SDS011;47868;51.326;6.550;2023-11-21T11:24:45;45.15;;;26.42;;
61915;SDS011;47868;51.326;6.550;2023-11-21T11:27:34;51.22;;;26.35;;
61915;SDS011;47868;51.326;6.550;2023-11-21T11:35:24;37.63;;;24.73;;
61915;SDS011;47868;51.326;6.550;2023-11-21T11:37:51;43.30;;;25.30;;
61915;SDS011;47868;51.326;6.550;2023-11-21T11:40:19;43.33;;;25.42;;
61915;SDS011;47868;51.326;6.550;2023-11-21T11:42:58;44.40;;;26.48;;
61915;SDS011;47868;51.326;6.550;2023-11-21T11:45:33;42.63;;;26.40;;
61915;SDS011;47868;51.326;6.550;2023-11-21T11:47:59;45.92;;;24.88;;
61915;SDS011;47868;51.326;6.550;2023-11-21T11:50:26;45.25;;;27.13;;
61915;SDS011;47868;51.326;6.550;2023-11-21T11:52:53;44.92;;;26.95;;
61915;SDS011;47868;51.326;6.550;2023-11-21T11:55:26;46.05;;;26.58;;
61915;SDS011;47868;51.326;6.550;2023-11-21T11:57:55;42.25;;;24.98;;
61915;SDS011;47868;51.326;6.550;2023-11-21T12:00:22;45.75;;;24.38;;
61915;SDS011;47868;51.326;6.550;2023-11-21T12:03:02;44.88;;;26.48;;
61915;SDS011;47868;51.326;6.550;2023-11-21T12:05:29;43.22;;;24.70;;
61915;SDS011;47868;51.326;6.550;2023-11-21T12:08:02;45.75;;;23.63;;
61915;SDS011;47868;51.326;6.550;2023-11-21T12:10:29;38.03;;;23.77;;
61915;SDS011;47868;51.326;6.550;2023-11-21T12:12:56;40.20;;;24.42;;
61915;SDS011;47868;51.326;6.550;2023-11-21T12:15:23;42.03;;;23.88;;
61915;SDS011;47868;51.326;6.550;2023-11-21T12:17:50;39.85;;;24.38;;
61915;SDS011;47868;51.326;6.550;2023-11-21T12:20:19;49.08;;;25.17;;
61915;SDS011;47868;51.326;6.550;2023-11-21T12:22:47;41.63;;;24.08;;
61915;SDS011;47868;51.326;6.550;2023-11-21T12:25:16;44.00;;;24.10;;
61915;SDS011;47868;51.326;6.550;2023-11-21T12:27:46;41.03;;;23.50;;
61915;SDS011;47868;51.326;6.550;2023-11-21T12:30:14;38.88;;;21.92;;
61915;SDS011;47868;51.326;6.550;2023-11-21T12:32:42;38.58;;;22.10;;
61915;SDS011;47868;51.326;6.550;2023-11-21T12:35:09;40.28;;;20.83;;
61915;SDS011;47868;51.326;6.550;2023-11-21T12:37:39;37.70;;;21.73;;
61915;SDS011;47868;51.326;6.550;2023-11-21T12:40:06;44.58;;;21.42;;
61915;SDS011;47868;51.326;6.550;2023-11-21T12:42:33;36.05;;;19.60;;
61915;SDS011;47868;51.326;6.550;2023-11-21T12:47:42;38.45;;;21.35;;
61915;SDS011;47868;51.326;6.550;2023-11-21T12:50:09;34.30;;;19.58;;
61915;SDS011;47868;51.326;6.550;2023-11-21T12:52:40;35.65;;;20.58;;
61915;SDS011;47868;51.326;6.550;2023-11-21T12:55:06;38.08;;;21.45;;
61915;SDS011;47868;51.326;6.550;2023-11-21T12:57:34;40.90;;;22.50;;
61915;SDS011;47868;51.326;6.550;2023-11-21T13:00:03;42.17;;;23.13;;
61915;SDS011;47868;51.326;6.550;2023-11-21T13:02:38;43.40;;;23.38;;
61915;SDS011;47868;51.326;6.550;2023-11-21T13:05:07;41.75;;;22.40;;
61915;SDS011;47868;51.326;6.550;2023-11-21T13:07:43;36.88;;;21.70;;
61915;SDS011;47868;51.326;6.550;2023-11-21T13:10:12;36.28;;;21.40;;
61915;SDS011;47868;51.326;6.550;2023-11-21T13:12:44;57.28;;;30.52;;
61915;SDS011;47868;51.326;6.550;2023-11-21T13:15:14;41.20;;;23.30;;
61915;SDS011;47868;51.326;6.550;2023-11-21T13:17:43;45.65;;;24.80;;
61915;SDS011;47868;51.326;6.550;2023-11-21T13:20:12;41.08;;;22.77;;
61915;SDS011;47868;51.326;6.550;2023-11-21T13:22:45;40.92;;;22.77;;
61915;SDS011;47868;51.326;6.550;2023-11-21T13:25:11;42.47;;;22.52;;
61915;SDS011;47868;51.326;6.550;2023-11-21T13:27:39;37.58;;;22.35;;
61915;SDS011;47868;51.326;6.550;2023-11-21T13:30:07;32.88;;;19.88;;
61915;SDS011;47868;51.326;6.550;2023-11-21T13:32:34;28.08;;;18.90;;
61915;SDS011;47868;51.326;6.550;2023-11-21T13:35:00;31.63;;;18.98;;
61915;SDS011;47868;51.326;6.550;2023-11-21T13:37:26;33.65;;;20.58;;
61915;SDS011;47868;51.326;6.550;2023-11-21T13:39:53;33.38;;;20.85;;
61915;SDS011;47868;51.326;6.550;2023-11-21T13:42:20;30.60;;;18.17;;
61915;SDS011;47868;51.326;6.550;2023-11-21T13:44:55;26.42;;;18.52;;
61915;SDS011;47868;51.326;6.550;2023-11-21T13:47:21;28.23;;;18.85;;
61915;SDS011;47868;51.326;6.550;2023-11-21T13:49:50;29.38;;;20.25;;
61915;SDS011;47868;51.326;6.550;2023-11-21T13:52:16;34.70;;;19.58;;
61915;SDS011;47868;51.326;6.550;2023-11-21T13:54:45;30.63;;;19.75;;
61915;SDS011;47868;51.326;6.550;2023-11-21T13:57:12;28.80;;;19.58;;
61915;SDS011;47868;51.326;6.550;2023-11-21T13:59:38;32.28;;;20.63;;
61915;SDS011;47868;51.326;6.550;2023-11-21T14:02:04;34.75;;;20.33;;
61915;SDS011;47868;51.326;6.550;2023-11-21T14:04:42;30.70;;;20.83;;
61915;SDS011;47868;51.326;6.550;2023-11-21T14:07:14;29.25;;;21.40;;
61915;SDS011;47868;51.326;6.550;2023-11-21T14:09:59;41.05;;;23.20;;
61915;SDS011;47868;51.326;6.550;2023-11-21T14:12:25;35.50;;;24.13;;
61915;SDS011;47868;51.326;6.550;2023-11-21T14:14:51;35.17;;;24.67;;
61915;SDS011;47868;51.326;6.550;2023-11-21T14:17:20;41.53;;;25.58;;
61915;SDS011;47868;51.326;6.550;2023-11-21T14:19:47;37.50;;;25.13;;
61915;SDS011;47868;51.326;6.550;2023-11-21T14:22:14;39.88;;;25.08;;
61915;SDS011;47868;51.326;6.550;2023-11-21T14:24:42;38.50;;;24.88;;
61915;SDS011;47868;51.326;6.550;2023-11-21T14:27:12;36.15;;;25.13;;
61915;SDS011;47868;51.326;6.550;2023-11-21T14:29:38;39.35;;;24.70;;
61915;SDS011;47868;51.326;6.550;2023-11-21T14:32:09;33.22;;;22.65;;